Time;durP1;ratioP1;P1;durP2;ratioP2;P2;SDS_P1;SDS_P2;PMS_P1;PMS_P2;Temp;Humidity;BMP_temperature;BMP_pressure;BME280_temperature;BME280_humidity;BME280_pressure;Samples;Min_cycle;Max_cycle;Signal;HPM_P1;HPM_P2
2021/04/26 00:01:38;;;;;;;10.00;4.10;;;5.20;43.00;;;;;;5028738;28;20460;-79
2021/04/26 00:04:10;;;;;;;4.73;3.83;;;5.10;43.00;;;;;;5036390;28;20564;-79
2021/04/26 00:06:45;;;;;;;6.43;5.33;;;5.10;43.30;;;;;;5039949;28;20527;-80
2021/04/26 00:09:19;;;;;;;5.60;4.20;;;4.90;43.30;;;;;;5032159;28;20461;-79
2021/04/26 00:11:55;;;;;;;5.80;4.67;;;4.90;43.40;;;;;;5025779;28;20461;-79
2021/04/26 00:14:30;;;;;;;7.17;4.80;;;4.90;43.40;;;;;;5029034;28;20908;-79
2021/04/26 00:17:05;;;;;;;8.43;5.17;;;4.90;43.50;;;;;;5024417;28;20539;-79
2021/04/26 00:19:39;;;;;;;10.37;5.37;;;4.90;43.50;;;;;;5024738;28;20536;-79
2021/04/26 00:22:14;;;;;;;8.30;4.83;;;4.80;43.60;;;;;;5027175;28;20462;-80
2021/04/26 00:24:48;;;;;;;4.70;4.23;;;4.50;43.70;;;;;;5027594;28;20473;-80
2021/04/26 00:27:24;;;;;;;9.10;5.90;;;4.60;43.90;;;;;;5027156;28;20875;-80
2021/04/26 00:29:59;;;;;;;6.47;5.10;;;4.50;44.00;;;;;;5034698;28;20631;-80
2021/04/26 00:32:34;;;;;;;7.70;6.20;;;4.50;44.00;;;;;;5028230;28;20445;-80
2021/04/26 00:35:10;;;;;;;6.17;5.50;;;4.60;44.00;;;;;;5049817;28;20461;-81
2021/04/26 00:37:45;;;;;;;11.00;6.17;;;4.60;44.00;;;;;;5041139;28;20457;-79
2021/04/26 00:40:21;;;;;;;8.33;6.00;;;4.70;43.80;;;;;;5032911;28;20555;-79
2021/04/26 00:42:57;;;;;;;6.50;5.53;;;4.60;43.90;;;;;;5025049;28;20654;-80
2021/04/26 00:45:32;;;;;;;11.87;5.97;;;4.60;44.00;;;;;;5026218;28;20461;-79
2021/04/26 00:48:07;;;;;;;7.83;5.70;;;4.60;44.10;;;;;;5025088;28;20482;-81
2021/04/26 00:50:42;;;;;;;7.60;5.60;;;4.60;44.00;;;;;;5024015;28;20475;-80
2021/04/26 00:53:18;;;;;;;7.30;5.83;;;4.70;44.10;;;;;;5023833;28;20453;-81
2021/04/26 00:55:53;;;;;;;8.30;5.87;;;4.60;44.10;;;;;;5032960;28;20449;-80
2021/04/26 00:58:29;;;;;;;8.73;6.10;;;4.40;44.10;;;;;;5024416;28;20449;-80
2021/04/26 01:01:04;;;;;;;9.70;5.83;;;4.40;44.20;;;;;;5030559;28;20441;-80
2021/04/26 01:03:39;;;;;;;6.73;6.03;;;4.40;44.40;;;;;;5029333;28;20895;-79
2021/04/26 01:06:14;;;;;;;9.13;5.53;;;4.30;44.30;;;;;;5033248;28;20477;-80
2021/04/26 01:08:48;;;;;;;9.43;5.93;;;4.50;44.40;;;;;;5031324;28;20486;-80
2021/04/26 01:11:25;;;;;;;5.70;5.20;;;4.30;44.30;;;;;;5032928;28;20963;-78
2021/04/26 01:14:08;;;;;;;6.60;6.00;;;4.30;44.40;;;;;;5028679;28;20502;-80
2021/04/26 01:16:51;;;;;;;13.07;5.57;;;4.30;44.30;;;;;;5029270;28;20457;-78
2021/04/26 01:19:53;;;;;;;6.60;5.40;;;4.30;44.60;;;;;;5022330;28;20461;-79
2021/04/26 01:22:51;;;;;;;6.30;5.70;;;4.20;44.50;;;;;;5024379;28;20464;-78
2021/04/26 01:25:27;;;;;;;8.90;6.10;;;4.40;44.50;;;;;;5024920;28;20467;-79
2021/04/26 01:28:34;;;;;;;10.30;6.70;;;4.40;44.30;;;;;;5021828;28;20492;-79
2021/04/26 01:31:18;;;;;;;9.00;5.13;;;4.40;44.60;;;;;;5008758;28;20453;-79
2021/04/26 01:33:58;;;;;;;7.97;6.30;;;4.20;44.40;;;;;;5025036;28;20446;-80
2021/04/26 01:36:35;;;;;;;7.67;5.20;;;4.20;44.40;;;;;;5026327;28;20445;-80
2021/04/26 01:39:11;;;;;;;7.60;5.80;;;4.30;44.50;;;;;;5019425;28;20471;-81
2021/04/26 01:41:46;;;;;;;7.73;5.20;;;4.30;44.40;;;;;;5026947;28;20507;-79
2021/04/26 01:44:23;;;;;;;8.50;5.83;;;4.30;44.40;;;;;;5026999;28;20461;-80
2021/04/26 01:46:59;;;;;;;10.13;6.07;;;4.30;44.50;;;;;;5027921;28;20474;-78
2021/04/26 01:49:35;;;;;;;6.23;5.30;;;4.30;44.50;;;;;;5025961;28;20469;-81
2021/04/26 01:52:15;;;;;;;7.33;6.03;;;4.30;44.50;;;;;;5023528;28;20508;-79
2021/04/26 01:54:50;;;;;;;8.23;6.47;;;4.30;44.60;;;;;;5021894;28;20479;-78
2021/04/26 01:57:28;;;;;;;8.33;5.83;;;4.30;44.40;;;;;;5031808;28;20543;-82
2021/04/26 02:00:04;;;;;;;7.33;6.17;;;4.30;44.50;;;;;;5022512;28;20941;-79
2021/04/26 02:02:41;;;;;;;9.43;6.37;;;4.10;44.40;;;;;;5024573;28;20448;-80
2021/04/26 02:05:18;;;;;;;8.10;6.23;;;4.00;44.70;;;;;;5027975;28;20463;-79
2021/04/26 02:07:54;;;;;;;6.67;5.27;;;4.00;45.00;;;;;;5023285;28;20448;-79
2021/04/26 02:10:32;;;;;;;5.70;5.13;;;3.90;44.80;;;;;;5024967;28;20505;-79
2021/04/26 02:13:12;;;;;;;9.80;6.13;;;3.90;44.90;;;;;;5025803;28;21246;-78
2021/04/26 02:15:48;;;;;;;6.73;5.67;;;3.90;44.90;;;;;;5019126;28;20518;-78
2021/04/26 02:18:22;;;;;;;7.90;5.37;;;4.00;44.80;;;;;;5024390;28;20446;-78
2021/04/26 02:20:58;;;;;;;6.80;5.73;;;3.90;44.90;;;;;;5020346;28;20476;-79
2021/04/26 02:23:33;;;;;;;7.30;5.43;;;4.00;45.10;;;;;;5025390;28;20471;-79
2021/04/26 02:26:08;;;;;;;9.07;5.73;;;4.10;45.10;;;;;;5020266;28;20529;-78
2021/04/26 02:28:43;;;;;;;7.13;6.30;;;3.90;45.10;;;;;;5027251;28;20481;-79
2021/04/26 02:31:22;;;;;;;8.90;5.30;;;4.10;45.20;;;;;;5023855;28;20472;-79
2021/04/26 02:34:01;;;;;;;9.60;5.70;;;4.10;45.20;;;;;;5030148;28;20914;-78
2021/04/26 02:36:40;;;;;;;7.10;5.50;;;4.00;45.30;;;;;;5026416;28;20442;-80
2021/04/26 02:39:16;;;;;;;8.70;6.27;;;4.00;45.30;;;;;;5025182;28;20472;-80
2021/04/26 02:41:53;;;;;;;6.70;5.47;;;4.00;45.40;;;;;;5025928;28;20484;-79
2021/04/26 02:44:30;;;;;;;8.60;5.73;;;4.00;45.40;;;;;;5028949;28;20453;-79
2021/04/26 02:47:08;;;;;;;6.57;5.70;;;3.80;45.50;;;;;;5021194;28;20541;-79
2021/04/26 02:49:46;;;;;;;5.50;4.80;;;3.90;45.80;;;;;;5030673;28;20478;-79
2021/04/26 02:52:22;;;;;;;6.47;5.57;;;3.90;45.60;;;;;;5028711;28;23845;-79
2021/04/26 02:54:57;;;;;;;6.33;5.23;;;3.90;45.60;;;;;;5026987;28;20515;-79
2021/04/26 02:57:35;;;;;;;9.53;5.50;;;3.90;45.70;;;;;;5022506;28;20981;-79
2021/04/26 03:00:12;;;;;;;6.97;5.87;;;3.80;45.60;;;;;;5032506;28;20472;-78
2021/04/26 03:02:49;;;;;;;8.73;5.87;;;3.90;45.80;;;;;;5023366;28;20536;-78
2021/04/26 03:05:24;;;;;;;7.00;5.10;;;3.90;45.70;;;;;;5029341;28;20504;-80
2021/04/26 03:08:00;;;;;;;7.80;5.30;;;3.80;45.70;;;;;;5022273;28;20456;-79
2021/04/26 03:10:35;;;;;;;7.60;5.07;;;3.90;45.80;;;;;;5025472;28;20473;-78
2021/04/26 03:13:11;;;;;;;5.97;5.23;;;3.80;45.80;;;;;;5024870;28;20465;-79
2021/04/26 03:15:46;;;;;;;6.10;5.50;;;3.80;45.80;;;;;;5035185;28;20452;-80
2021/04/26 03:18:22;;;;;;;8.00;6.20;;;3.80;45.80;;;;;;5035006;28;20533;-79
2021/04/26 03:20:58;;;;;;;9.27;5.80;;;3.70;46.00;;;;;;5038637;28;20448;-79
2021/04/26 03:23:34;;;;;;;5.40;4.80;;;3.70;45.90;;;;;;5029849;28;20532;-79
2021/04/26 03:26:08;;;;;;;6.93;5.27;;;3.70;45.70;;;;;;5037370;28;20442;-79
2021/04/26 03:28:46;;;;;;;6.80;5.37;;;3.70;45.70;;;;;;5037295;28;20453;-79
2021/04/26 03:31:21;;;;;;;9.27;5.20;;;3.60;45.70;;;;;;5036602;28;20451;-79
2021/04/26 03:33:56;;;;;;;7.10;5.17;;;3.60;45.80;;;;;;5036676;28;20466;-80
2021/04/26 03:36:32;;;;;;;9.70;5.80;;;3.60;45.70;;;;;;5038980;28;20464;-79
2021/04/26 03:39:10;;;;;;;6.40;5.10;;;3.70;45.60;;;;;;5027521;28;20506;-79
2021/04/26 03:41:46;;;;;;;8.07;6.07;;;3.60;45.90;;;;;;5037700;28;20461;-78
2021/04/26 03:44:23;;;;;;;8.90;5.70;;;3.50;45.80;;;;;;5025949;28;20463;-80
2021/04/26 03:47:02;;;;;;;7.30;5.50;;;3.60;45.90;;;;;;5032148;28;20463;-79
2021/04/26 03:49:36;;;;;;;11.00;4.83;;;3.60;45.90;;;;;;5029228;28;20518;-78
2021/04/26 03:52:12;;;;;;;6.23;4.80;;;3.60;46.00;;;;;;5032541;28;20543;-79
2021/04/26 03:54:48;;;;;;;5.70;5.03;;;3.60;46.00;;;;;;5029249;28;20551;-79
2021/04/26 03:57:19;;;;;;;5.67;5.03;;;3.50;46.00;;;;;;5029743;28;20454;-79
2021/04/26 03:59:54;;;;;;;6.00;5.40;;;3.60;46.20;;;;;;5032909;28;20456;-79
2021/04/26 04:02:29;;;;;;;9.93;6.67;;;3.50;46.00;;;;;;5028341;28;20490;-81
2021/04/26 04:05:04;;;;;;;11.23;5.10;;;3.50;46.10;;;;;;5030567;28;20440;-81
2021/04/26 04:07:39;;;;;;;7.67;5.20;;;3.50;46.20;;;;;;5040694;28;20459;-81
2021/04/26 04:10:16;;;;;;;5.67;5.10;;;3.50;46.20;;;;;;5036399;28;20473;-81
2021/04/26 04:12:51;;;;;;;6.40;5.13;;;3.40;46.20;;;;;;5041664;28;20465;-82
2021/04/26 04:15:26;;;;;;;6.63;5.13;;;3.40;46.40;;;;;;5036163;28;20452;-81
2021/04/26 04:18:00;;;;;;;8.37;5.10;;;3.50;46.40;;;;;;5044443;28;21028;-82
2021/04/26 04:20:35;;;;;;;6.90;5.33;;;3.50;46.40;;;;;;5037877;28;20464;-82
2021/04/26 04:23:10;;;;;;;11.30;5.20;;;3.50;46.60;;;;;;5045073;28;20499;-82
2021/04/26 04:25:46;;;;;;;5.70;5.10;;;3.50;46.50;;;;;;5041290;28;20453;-82
2021/04/26 04:28:21;;;;;;;7.50;5.50;;;4.40;46.80;;;;;;5043736;28;20498;-81
2021/04/26 04:30:56;;;;;;;6.83;5.57;;;5.00;45.60;;;;;;5041411;28;20473;-82
2021/04/26 04:33:31;;;;;;;6.17;5.10;;;4.40;44.60;;;;;;5040990;28;20662;-81
2021/04/26 04:36:06;;;;;;;7.37;5.70;;;4.50;45.40;;;;;;5033816;28;20453;-80
2021/04/26 04:38:41;;;;;;;7.00;6.23;;;4.60;45.30;;;;;;5038772;28;20464;-81
2021/04/26 04:41:17;;;;;;;7.63;5.97;;;4.40;45.50;;;;;;5032425;28;20545;-81
2021/04/26 04:43:51;;;;;;;9.60;5.70;;;4.40;45.80;;;;;;5041377;28;20570;-81
2021/04/26 04:46:26;;;;;;;6.13;4.87;;;4.60;45.80;;;;;;5042828;28;20450;-82
2021/04/26 04:49:01;;;;;;;6.57;4.93;;;4.40;45.40;;;;;;5042244;28;20469;-81
2021/04/26 04:51:36;;;;;;;7.43;5.47;;;4.10;45.70;;;;;;5042130;28;20457;-81
2021/04/26 04:54:11;;;;;;;10.50;5.70;;;4.30;46.00;;;;;;5029522;28;20463;-81
2021/04/26 04:56:47;;;;;;;7.07;6.07;;;4.60;45.90;;;;;;5041174;28;20753;-81
2021/04/26 04:59:22;;;;;;;7.70;5.07;;;4.70;45.60;;;;;;5028741;28;20447;-81
2021/04/26 05:01:57;;;;;;;8.00;5.40;;;5.30;45.80;;;;;;5036345;28;20470;-81
2021/04/26 05:04:31;;;;;;;5.50;5.00;;;6.30;45.10;;;;;;5036553;28;20465;-82
2021/04/26 05:07:07;;;;;;;8.13;5.47;;;6.30;44.40;;;;;;5048653;28;20429;-81
2021/04/26 05:09:42;;;;;;;6.30;5.47;;;7.10;43.80;;;;;;5052174;28;20463;-81
2021/04/26 05:12:18;;;;;;;6.63;4.90;;;6.60;42.90;;;;;;5046508;28;20454;-81
2021/04/26 05:14:51;;;;;;;9.70;5.03;;;8.10;43.90;;;;;;5038757;28;20458;-82
2021/04/26 05:17:26;;;;;;;5.53;5.03;;;8.10;43.20;;;;;;5041336;28;20457;-81
2021/04/26 05:20:01;;;;;;;7.93;5.50;;;9.20;42.80;;;;;;5035890;28;20462;-82
2021/04/26 05:22:37;;;;;;;6.77;5.40;;;10.20;41.50;;;;;;5038892;28;20494;-80
2021/04/26 05:25:14;;;;;;;11.00;5.20;;;10.10;41.20;;;;;;5032419;28;20499;-80
2021/04/26 05:27:49;;;;;;;9.73;5.90;;;7.60;40.50;;;;;;5036207;28;20459;-79
2021/04/26 05:30:26;;;;;;;9.90;4.87;;;8.70;42.70;;;;;;5034274;28;20474;-80
2021/04/26 05:33:01;;;;;;;5.60;4.73;;;7.90;41.80;;;;;;5030630;28;20564;-80
2021/04/26 05:35:35;;;;;;;6.97;6.13;;;7.30;42.90;;;;;;5028006;28;20829;-79
2021/04/26 05:38:19;;;;;;;8.40;5.00;;;7.90;43.40;;;;;;5030024;28;20693;-80
2021/04/26 05:40:54;;;;;;;6.20;4.80;;;7.90;43.00;;;;;;5030586;28;20493;-80
2021/04/26 05:43:29;;;;;;;5.07;4.57;;;8.50;42.30;;;;;;5030290;28;20433;-81
2021/04/26 05:46:04;;;;;;;6.80;4.83;;;8.30;41.40;;;;;;5031770;28;20501;-81
2021/04/26 05:48:39;;;;;;;7.20;5.20;;;6.40;41.60;;;;;;5038000;28;20458;-81
2021/04/26 05:51:15;;;;;;;5.97;4.43;;;6.20;42.40;;;;;;5038065;28;20452;-80
2021/04/26 05:53:49;;;;;;;9.30;5.17;;;5.70;43.20;;;;;;5045655;28;20461;-83
2021/04/26 05:56:24;;;;;;;7.37;4.77;;;5.20;43.80;;;;;;5040570;28;20468;-78
2021/04/26 05:59:00;;;;;;;5.53;4.97;;;5.10;44.10;;;;;;5032385;28;20825;-79
2021/04/26 06:01:35;;;;;;;6.57;4.60;;;5.00;44.50;;;;;;5019255;28;20523;-78
2021/04/26 06:04:10;;;;;;;8.20;4.57;;;5.00;44.20;;;;;;5030119;28;20453;-84
2021/04/26 06:06:42;;;;;;;5.93;4.65;;;5.10;44.20;;;;;;5029658;28;20455;-79
2021/04/26 06:09:19;;;;;;;7.90;4.80;;;5.10;44.00;;;;;;5026155;28;20307;-80
2021/04/26 06:11:54;;;;;;;5.07;4.23;;;4.90;43.80;;;;;;5025321;28;20477;-81
2021/04/26 06:14:30;;;;;;;8.20;4.63;;;5.10;43.90;;;;;;5032576;28;20833;-82
2021/04/26 06:17:05;;;;;;;4.83;4.40;;;5.30;43.80;;;;;;5028696;28;20526;-81
2021/04/26 06:19:40;;;;;;;5.73;4.23;;;5.30;43.40;;;;;;5026069;28;20497;-80
2021/04/26 06:22:15;;;;;;;4.60;4.17;;;5.20;43.30;;;;;;5028565;28;20458;-82
2021/04/26 06:24:50;;;;;;;6.67;5.00;;;5.20;43.20;;;;;;5031380;28;20483;-81
2021/04/26 06:27:25;;;;;;;4.93;3.80;;;5.20;43.20;;;;;;5032671;28;20467;-81
2021/04/26 06:30:00;;;;;;;3.80;3.37;;;5.40;43.10;;;;;;5040410;28;20461;-80
2021/04/26 06:32:35;;;;;;;6.10;4.23;;;5.20;42.60;;;;;;5040806;28;20452;-79
2021/04/26 06:35:11;;;;;;;5.40;3.73;;;5.40;42.80;;;;;;5037165;28;20446;-80
2021/04/26 06:37:46;;;;;;;4.67;3.77;;;5.50;42.30;;;;;;5044052;28;20505;-80
2021/04/26 06:40:21;;;;;;;4.37;3.97;;;5.80;42.50;;;;;;5047406;28;20472;-78
2021/04/26 06:42:56;;;;;;;6.30;3.97;;;5.90;42.30;;;;;;5026897;28;20455;-80
2021/04/26 06:45:29;;;;;;;6.03;4.07;;;6.00;42.10;;;;;;5031146;28;20465;-80
2021/04/26 06:48:06;;;;;;;5.80;3.83;;;6.20;41.90;;;;;;5032393;28;20534;-81
2021/04/26 06:50:41;;;;;;;8.83;4.00;;;5.80;41.60;;;;;;5042173;28;20983;-80
2021/04/26 06:53:16;;;;;;;5.50;3.53;;;6.30;42.20;;;;;;5032988;28;20458;-82
2021/04/26 06:55:48;;;;;;;6.07;3.77;;;6.40;41.40;;;;;;5029267;28;20605;-81
2021/04/26 06:58:29;;;;;;;4.47;3.77;;;6.30;41.10;;;;;;5041380;28;20829;-82
2021/04/26 07:01:06;;;;;;;4.83;3.33;;;6.50;41.30;;;;;;5035811;28;20452;-74
2021/04/26 07:03:41;;;;;;;8.48;4.15;;;6.20;40.90;;;;;;5036099;28;20460;-88
2021/04/26 07:06:25;;;;;;;3.37;3.00;;;6.80;41.30;;;;;;5045454;28;20212;-88
2021/04/26 07:09:06;;;;;;;4.90;4.10;;;6.80;40.80;;;;;;5038872;28;20455;-88
2021/04/26 07:12:01;;;;;;;3.90;3.33;;;7.10;41.10;;;;;;5046792;28;20450;-89
2021/04/26 07:17:50;;;;;;;6.33;3.97;;;7.10;40.60;;;;;;5042370;28;20469;-86
2021/04/26 07:20:28;;;;;;;4.27;3.57;;;7.30;40.50;;;;;;5035019;28;20459;-79
2021/04/26 07:23:03;;;;;;;5.90;4.35;;;7.40;40.50;;;;;;5032704;28;20460;-80
2021/04/26 07:25:39;;;;;;;4.23;3.83;;;7.70;40.60;;;;;;5032880;28;20655;-80
2021/04/26 07:28:14;;;;;;;3.90;3.60;;;7.20;39.90;;;;;;5031509;28;20463;-82
2021/04/26 07:30:50;;;;;;;4.73;3.63;;;7.60;40.40;;;;;;5035943;28;20479;-81
2021/04/26 07:34:00;;;;;;;15.10;4.73;;;7.60;40.30;;;;;;5037666;28;20459;-84
2021/04/26 07:36:45;;;;;;;5.83;3.77;;;7.70;40.40;;;;;;5037858;28;20522;-83
2021/04/26 07:39:20;;;;;;;8.98;4.03;;;7.90;39.70;;;;;;5033192;28;20459;-77
2021/04/26 07:41:52;;;;;;;6.40;3.70;;;7.80;39.40;;;;;;5034607;28;20538;-80
2021/04/26 07:44:27;;;;;;;4.73;3.53;;;7.70;39.20;;;;;;5029043;28;20210;-81
2021/04/26 07:47:04;;;;;;;4.90;3.60;;;7.70;39.20;;;;;;5034042;28;20453;-81
2021/04/26 07:49:48;;;;;;;4.10;3.70;;;7.90;39.40;;;;;;5039579;28;20448;-82
2021/04/26 07:52:23;;;;;;;5.77;3.93;;;8.10;39.00;;;;;;5038997;28;20197;-83
2021/04/26 07:54:59;;;;;;;10.63;3.67;;;7.90;38.60;;;;;;5037818;28;20450;-82
2021/04/26 07:57:36;;;;;;;6.13;2.60;;;8.00;38.70;;;;;;5033677;28;20450;-83
2021/04/26 08:00:12;;;;;;;3.60;3.27;;;8.10;38.20;;;;;;5040377;28;20504;-82
2021/04/26 08:03:02;;;;;;;4.20;3.13;;;8.30;38.10;;;;;;5037762;28;20593;-82
2021/04/26 08:05:39;;;;;;;3.83;2.70;;;8.10;37.70;;;;;;5036088;28;20505;-81
2021/04/26 08:08:15;;;;;;;5.10;2.67;;;8.70;38.20;;;;;;5040372;28;20455;-80
2021/04/26 08:10:50;;;;;;;3.53;2.50;;;8.70;37.30;;;;;;5038482;28;20484;-80
2021/04/26 08:13:25;;;;;;;3.33;3.03;;;8.90;37.40;;;;;;5032929;28;20532;-81
2021/04/26 08:16:09;;;;;;;8.30;3.20;;;9.10;37.40;;;;;;5041516;28;20212;-82
2021/04/26 08:18:44;;;;;;;7.33;2.67;;;9.20;37.60;;;;;;5041739;28;20454;-81
2021/04/26 08:21:19;;;;;;;3.17;2.63;;;9.40;37.00;;;;;;5032166;28;20462;-82
2021/04/26 08:23:56;;;;;;;2.57;2.30;;;9.40;36.70;;;;;;5037111;28;20459;-78
2021/04/26 08:26:34;;;;;;;3.10;2.80;;;8.90;36.30;;;;;;5031057;28;20457;-76
2021/04/26 08:29:10;;;;;;;3.13;2.83;;;9.20;36.40;;;;;;5018879;28;20201;-76
2021/04/26 08:31:44;;;;;;;4.53;3.03;;;9.20;36.70;;;;;;5019924;28;20492;-79
2021/04/26 08:34:19;;;;;;;4.90;3.07;;;9.40;36.40;;;;;;5022754;28;20475;-77
2021/04/26 08:36:55;;;;;;;3.70;2.70;;;9.40;36.60;;;;;;5030739;28;20451;-77
2021/04/26 08:39:31;;;;;;;4.87;2.63;;;9.50;36.30;;;;;;5024393;28;20449;-78
2021/04/26 08:42:05;;;;;;;3.27;2.67;;;9.40;36.00;;;;;;5028729;28;20455;-76
2021/04/26 08:44:40;;;;;;;3.67;2.90;;;9.50;36.10;;;;;;5035245;28;20453;-78
2021/04/26 08:47:18;;;;;;;2.80;2.43;;;10.00;35.50;;;;;;5037495;28;20220;-83
2021/04/26 08:50:03;;;;;;;5.03;2.30;;;10.00;34.80;;;;;;5033013;28;20496;-84
2021/04/26 08:52:40;;;;;;;2.77;2.57;;;10.30;36.00;;;;;;5050017;28;20455;-84
2021/04/26 08:55:18;;;;;;;3.80;2.50;;;10.00;34.80;;;;;;5041055;28;20462;-80
2021/04/26 08:57:58;;;;;;;3.93;2.40;;;10.10;35.30;;;;;;5031289;28;20451;-82
2021/04/26 09:00:43;;;;;;;20.43;4.63;;;10.00;35.10;;;;;;5040515;28;20471;-84
2021/04/26 09:06:27;;;;;;;5.95;2.92;;;9.90;35.90;;;;;;5038323;28;20468;-77
2021/04/26 09:09:00;;;;;;;4.72;2.70;;;9.70;35.80;;;;;;5036085;28;20449;-83
2021/04/26 09:11:36;;;;;;;5.70;2.43;;;10.10;35.00;;;;;;5031921;28;20287;-81
2021/04/26 09:14:12;;;;;;;2.63;2.43;;;10.40;35.10;;;;;;5035571;28;20495;-80
2021/04/26 09:16:52;;;;;;;2.80;2.33;;;10.60;35.00;;;;;;5035399;28;20505;-81
2021/04/26 09:19:35;;;;;;;3.50;3.20;;;10.80;34.70;;;;;;5038065;28;20458;-84
2021/04/26 09:22:11;;;;;;;9.77;3.47;;;10.50;34.20;;;;;;5037292;28;20478;-78
2021/04/26 09:24:46;;;;;;;2.70;2.50;;;10.20;34.00;;;;;;5038987;28;20470;-78
2021/04/26 09:27:34;;;;;;;3.72;2.67;;;10.60;34.50;;;;;;5037158;28;20461;-80
2021/04/26 09:30:12;;;;;;;4.87;3.07;;;10.90;34.20;;;;;;5034255;28;20212;-81
2021/04/26 09:32:48;;;;;;;3.57;2.67;;;10.70;34.10;;;;;;5037711;28;20475;-82
2021/04/26 09:35:32;;;;;;;4.13;2.92;;;10.90;34.00;;;;;;5036329;28;20456;-80
2021/04/26 09:38:27;;;;;;;3.13;2.70;;;11.00;34.30;;;;;;5035869;28;20591;-82
2021/04/26 09:41:31;;;;;;;5.70;3.00;;;11.30;34.00;;;;;;5038415;28;20181;-83
2021/04/26 09:44:21;;;;;;;4.30;2.80;;;10.70;34.40;;;;;;4977971;28;20454;-81
2021/04/26 09:46:57;;;;;;;5.30;2.50;;;10.90;34.30;;;;;;5034701;28;20455;-82
2021/04/26 09:52:26;;;;;;;3.03;2.60;;;11.10;34.30;;;;;;5044151;28;20463;-82
2021/04/26 09:55:09;;;;;;;4.67;2.63;;;11.40;34.00;;;;;;5040211;28;20481;-80
2021/04/26 09:57:50;;;;;;;3.03;2.43;;;11.60;34.10;;;;;;5041139;28;20482;-81
2021/04/26 10:00:28;;;;;;;3.57;2.43;;;11.30;33.70;;;;;;5045257;28;20442;-82
2021/04/26 10:03:06;;;;;;;3.53;2.80;;;11.20;33.80;;;;;;5036803;28;20466;-83
2021/04/26 10:05:44;;;;;;;4.25;3.03;;;11.50;34.40;;;;;;5034657;28;21020;-82
2021/04/26 10:08:38;;;;;;;4.13;3.50;;;11.50;33.90;;;;;;5043059;28;20196;-81
2021/04/26 10:11:13;;;;;;;2.90;2.47;;;11.00;33.60;;;;;;5030142;28;20537;-83
2021/04/26 10:13:55;;;;;;;2.90;2.37;;;11.30;34.00;;;;;;5039104;28;20458;-81
2021/04/26 10:16:44;;;;;;;3.20;2.60;;;11.30;33.90;;;;;;5039373;28;20469;-81
2021/04/26 10:19:19;;;;;;;4.18;2.70;;;11.30;33.70;;;;;;5025459;28;20455;-81
2021/04/26 10:22:05;;;;;;;5.20;2.60;;;11.50;34.10;;;;;;5031920;28;20197;-82
2021/04/26 10:24:53;;;;;;;4.60;2.93;;;11.40;33.80;;;;;;5034967;28;20489;-82
2021/04/26 10:27:35;;;;;;;4.23;2.80;;;11.30;34.10;;;;;;5033678;28;20543;-82
2021/04/26 10:30:19;;;;;;;5.13;3.00;;;11.60;33.80;;;;;;5030990;28;20495;-82
2021/04/26 10:33:03;;;;;;;4.00;2.70;;;11.70;33.70;;;;;;5032698;28;20435;-82
2021/04/26 10:35:58;;;;;;;5.03;2.95;;;11.60;33.60;;;;;;5042449;28;20453;-83
2021/04/26 10:38:53;;;;;;;3.70;3.13;;;11.60;33.90;;;;;;5040758;28;20239;-84
2021/04/26 10:42:20;;;;;;;3.40;2.60;;;11.80;33.10;;;;;;5032542;28;20551;-81
2021/04/26 10:44:56;;;;;;;2.43;2.23;;;11.30;32.70;;;;;;5022853;28;20466;-81
2021/04/26 10:47:40;;;;;;;3.40;3.10;;;11.90;33.00;;;;;;5025230;28;21085;-82
2021/04/26 10:50:41;;;;;;;4.63;2.93;;;11.60;33.10;;;;;;5036205;28;20471;-85
2021/04/26 10:53:17;;;;;;;2.60;2.17;;;11.50;32.60;;;;;;5035889;28;20571;-82
2021/04/26 10:55:57;;;;;;;7.70;3.07;;;11.60;32.50;;;;;;5031991;28;20462;-82
2021/04/26 10:58:44;;;;;;;6.17;2.53;;;11.80;32.20;;;;;;5036071;28;20958;-83
2021/04/26 11:02:09;;;;;;;3.63;2.70;;;11.70;32.10;;;;;;5040398;28;20460;-83
2021/04/26 11:08:47;;;;;;;3.10;2.27;;;12.10;31.40;;;;;;5035200;28;20463;-82
2021/04/26 11:11:36;;;;;;;3.20;2.20;;;11.90;31.20;;;;;;5040846;28;20472;-82
2021/04/26 11:14:32;;;;;;;5.83;3.87;;;12.70;31.70;;;;;;5041385;28;20463;-84
2021/04/26 11:17:14;;;;;;;2.97;2.03;;;12.70;32.00;;;;;;5034845;28;20463;-86
2021/04/26 11:20:23;;;;;;;6.90;2.70;;;12.30;31.40;;;;;;5034900;28;20454;-85
2021/04/26 11:23:01;;;;;;;3.38;2.67;;;12.20;31.40;;;;;;5036925;28;20539;-82
2021/04/26 11:25:42;;;;;;;5.13;2.67;;;12.20;31.50;;;;;;5039101;28;20192;-82
2021/04/26 11:28:17;;;;;;;6.07;2.47;;;12.20;31.00;;;;;;5028090;28;20601;-81
2021/04/26 11:30:56;;;;;;;9.70;1.93;;;12.50;31.10;;;;;;5035089;28;20475;-86
2021/04/26 11:33:55;;;;;;;3.60;2.10;;;12.40;30.80;;;;;;5027941;28;20445;-89
2021/04/26 11:36:33;;;;;;;2.50;1.93;;;12.50;30.90;;;;;;5039248;28;20203;-87
2021/04/26 11:39:12;;;;;;;2.73;2.43;;;12.90;30.10;;;;;;5028332;28;20469;-82
2021/04/26 11:41:53;;;;;;;2.00;1.90;;;13.00;30.00;;;;;;5035726;28;20490;-83
2021/04/26 11:44:31;;;;;;;3.07;2.00;;;12.70;29.60;;;;;;5034798;28;20527;-82
2021/04/26 11:47:09;;;;;;;2.50;1.97;;;12.80;29.60;;;;;;5042053;28;20466;-88
2021/04/26 11:49:54;;;;;;;2.77;2.33;;;12.70;29.70;;;;;;5048008;28;20471;-81
2021/04/26 11:52:36;;;;;;;2.60;1.80;;;12.50;29.50;;;;;;5041381;28;20511;-81
2021/04/26 11:55:27;;;;;;;3.65;2.10;;;12.70;29.50;;;;;;5042575;28;21077;-82
2021/04/26 11:58:03;;;;;;;3.43;2.30;;;12.60;29.50;;;;;;5044237;28;20447;-85
2021/04/26 12:00:39;;;;;;;2.30;1.90;;;12.70;29.40;;;;;;5034644;28;20456;-84
2021/04/26 12:03:22;;;;;;;3.87;2.40;;;12.70;29.20;;;;;;5034278;28;20453;-83
2021/04/26 12:05:57;;;;;;;2.63;2.10;;;12.90;28.90;;;;;;5039666;28;20455;-85
2021/04/26 12:08:54;;;;;;;2.40;1.90;;;13.00;29.00;;;;;;5039533;28;20462;-83
2021/04/26 12:11:30;;;;;;;2.23;2.00;;;13.00;28.60;;;;;;5040663;28;20993;-82
2021/04/26 12:14:22;;;;;;;2.17;1.97;;;12.70;28.40;;;;;;5032277;28;20459;-82
2021/04/26 12:17:10;;;;;;;2.90;2.23;;;12.90;28.20;;;;;;5036851;28;20852;-80
2021/04/26 12:19:50;;;;;;;2.40;2.10;;;12.80;27.90;;;;;;5033791;28;20464;-84
2021/04/26 12:22:41;;;;;;;2.60;1.70;;;13.20;28.10;;;;;;5033795;28;20447;-83
2021/04/26 12:25:24;;;;;;;2.10;1.50;;;13.20;28.00;;;;;;5031511;28;20487;-82
2021/04/26 12:28:10;;;;;;;2.53;1.93;;;13.20;28.30;;;;;;5041880;28;20477;-82
2021/04/26 12:30:49;;;;;;;2.63;2.10;;;13.30;27.90;;;;;;5039139;28;20471;-82
2021/04/26 12:33:33;;;;;;;2.27;2.07;;;13.30;28.20;;;;;;5033009;28;20459;-83
2021/04/26 12:36:09;;;;;;;2.37;2.17;;;13.40;27.70;;;;;;5037594;28;20455;-84
2021/04/26 12:38:53;;;;;;;1.90;1.80;;;13.10;27.60;;;;;;5054887;28;20466;-84
2021/04/26 12:41:41;;;;;;;4.03;2.00;;;13.30;28.00;;;;;;5039868;28;20454;-80
2021/04/26 12:44:32;;;;;;;4.33;1.87;;;13.20;28.20;;;;;;5044243;28;20481;-83
2021/04/26 12:47:22;;;;;;;2.13;1.93;;;13.60;28.40;;;;;;5037141;28;20513;-83
2021/04/26 12:50:24;;;;;;;4.83;1.90;;;13.80;28.40;;;;;;5040317;28;20468;-83
2021/04/26 12:53:20;;;;;;;3.00;1.73;;;14.00;28.50;;;;;;5033941;28;20444;-80
2021/04/26 12:55:59;;;;;;;4.35;2.35;;;13.80;28.10;;;;;;5026828;28;20489;-78
2021/04/26 12:58:37;;;;;;;4.65;2.22;;;14.00;28.30;;;;;;5029256;28;20539;-82
2021/04/26 13:01:25;;;;;;;4.07;2.00;;;13.70;27.80;;;;;;5034690;28;20205;-81
2021/04/26 13:04:05;;;;;;;2.03;1.90;;;13.80;27.70;;;;;;5037470;28;20560;-82
2021/04/26 13:06:43;;;;;;;2.07;1.87;;;13.60;27.20;;;;;;5035017;28;20491;-82
2021/04/26 13:09:18;;;;;;;4.07;2.30;;;13.40;27.40;;;;;;5034733;28;20646;-81
2021/04/26 13:11:56;;;;;;;3.63;2.37;;;13.70;27.80;;;;;;5035353;28;20459;-81
2021/04/26 13:17:16;;;;;;;2.40;2.03;;;13.80;27.80;;;;;;5040087;28;20328;-83
2021/04/26 13:20:01;;;;;;;3.70;2.03;;;13.80;27.50;;;;;;5028540;28;20451;-82
2021/04/26 13:22:47;;;;;;;2.60;2.00;;;14.00;27.60;;;;;;5028934;28;20819;-86
2021/04/26 13:25:33;;;;;;;2.17;2.00;;;14.00;27.20;;;;;;5043840;28;20184;-84
2021/04/26 13:28:33;;;;;;;2.47;2.13;;;14.10;27.30;;;;;;5051296;28;20459;-80
2021/04/26 13:31:09;;;;;;;2.50;2.30;;;14.00;27.20;;;;;;5049119;28;20464;-82
2021/04/26 13:33:46;;;;;;;2.37;2.00;;;13.80;27.10;;;;;;5047422;28;20473;-84
2021/04/26 13:36:20;;;;;;;2.80;2.10;;;14.00;26.90;;;;;;5041594;28;20462;-83
2021/04/26 13:38:58;;;;;;;3.13;2.10;;;14.00;27.00;;;;;;5026846;28;20446;-82
2021/04/26 13:41:31;;;;;;;3.20;2.40;;;14.00;27.30;;;;;;5049631;28;20534;-81
2021/04/26 13:44:07;;;;;;;3.60;1.83;;;14.10;27.50;;;;;;5046857;28;20463;-81
2021/04/26 13:46:43;;;;;;;3.63;2.27;;;13.90;27.60;;;;;;5050958;28;20462;-83
2021/04/26 13:49:21;;;;;;;2.13;1.60;;;13.70;27.30;;;;;;5047991;28;20904;-82
2021/04/26 13:51:57;;;;;;;3.90;1.80;;;13.90;27.70;;;;;;5042005;28;20447;-83
2021/04/26 13:54:37;;;;;;;2.80;2.20;;;14.00;27.80;;;;;;5044252;28;20462;-82
2021/04/26 13:57:12;;;;;;;2.23;2.00;;;14.20;28.20;;;;;;5044982;28;20538;-81
2021/04/26 13:59:48;;;;;;;3.07;2.00;;;14.20;28.10;;;;;;5041821;28;20491;-81
2021/04/26 14:02:25;;;;;;;3.10;2.10;;;13.90;27.20;;;;;;5029652;28;20470;-83
2021/04/26 14:05:04;;;;;;;2.60;2.33;;;14.20;27.50;;;;;;5043142;28;20458;-83
2021/04/26 14:07:36;;;;;;;2.92;2.05;;;14.50;27.60;;;;;;5041273;28;20492;-86
2021/04/26 14:13:19;;;;;;;3.07;2.47;;;14.40;28.40;;;;;;5048123;28;20446;-86